Time;durP1;ratioP1;P1;durP2;ratioP2;P2;SDS_P1;SDS_P2;PMS_P1;PMS_P2;Temp;Humidity;BMP_temperature;BMP_pressure;BME280_temperature;BME280_humidity;BME280_pressure;Samples;Min_cycle;Max_cycle;Signal;HPM_P1;HPM_P2
2023/04/15 00:01:57;;;;;;;16.60;7.10;;;;;;;9.04;75.45;94403.88;5008773;28;20265;-72
2023/04/15 00:04:23;;;;;;;16.97;7.10;;;;;;;8.97;76.72;94413.53;5030986;28;20234;-72
2023/04/15 00:06:52;;;;;;;17.20;7.30;;;;;;;9.16;74.50;94432.78;5015377;28;20304;-72
2023/04/15 00:09:18;;;;;;;15.23;7.07;;;;;;;9.35;72.70;94440.59;5018212;28;20541;-72
2023/04/15 00:11:45;;;;;;;15.47;7.13;;;;;;;9.24;73.13;94438.59;5024456;28;20314;-72
2023/04/15 00:14:11;;;;;;;15.67;7.50;;;;;;;9.14;74.66;94442.63;5015649;28;20269;-71
2023/04/15 00:16:37;;;;;;;17.20;7.43;;;;;;;8.83;75.38;94430.19;5037124;28;20773;-72
2023/04/15 00:19:02;;;;;;;16.73;7.30;;;;;;;8.65;77.38;94435.19;5007566;28;20241;-72
2023/04/15 00:21:28;;;;;;;16.17;7.17;;;;;;;9.05;75.36;94434.19;5021042;28;20288;-71
2023/04/15 00:23:53;;;;;;;16.57;7.40;;;;;;;9.10;73.78;94429.16;5035194;28;20234;-71
2023/04/15 00:26:19;;;;;;;17.73;7.17;;;;;;;8.96;75.32;94424.16;5007699;28;20413;-72
2023/04/15 00:28:45;;;;;;;16.53;7.53;;;;;;;8.90;75.17;94428.38;4999501;28;20685;-70
2023/04/15 00:31:11;;;;;;;16.67;7.37;;;;;;;8.92;76.10;94426.38;5016052;28;20244;-72
2023/04/15 00:33:36;;;;;;;14.53;7.03;;;;;;;8.99;76.33;94415.94;5034116;28;20320;-72
2023/04/15 00:36:03;;;;;;;16.27;7.13;;;;;;;8.92;76.40;94418.56;5031617;28;20233;-72
2023/04/15 00:38:28;;;;;;;16.47;7.30;;;;;;;9.19;75.97;94430.59;5030744;28;21060;-72
2023/04/15 00:40:55;;;;;;;16.83;7.33;;;;;;;9.38;75.41;94423.72;5014851;28;20249;-72
2023/04/15 00:43:20;;;;;;;17.27;7.33;;;;;;;9.48;74.62;94437.16;4998194;28;20231;-71
2023/04/15 00:45:46;;;;;;;18.03;7.23;;;;;;;9.57;73.11;94435.13;5024749;28;20229;-71
2023/04/15 00:48:11;;;;;;;14.93;7.43;;;;;;;9.64;73.31;94434.09;5018723;28;20671;-72
2023/04/15 00:50:37;;;;;;;13.83;6.90;;;;;;;9.75;73.33;94436.06;5016418;28;20341;-72
2023/04/15 00:53:02;;;;;;;15.37;7.00;;;;;;;9.61;73.99;94433.69;4996258;28;20226;-72
2023/04/15 00:55:28;;;;;;;13.73;6.37;;;;;;;9.38;75.95;94426.34;5006832;28;20230;-71
2023/04/15 00:58:01;;;;;;;11.70;6.13;;;;;;;9.38;77.29;94423.72;5054566;27;20571;-72
2023/04/15 01:00:27;;;;;;;12.07;6.10;;;;;;;9.19;76.58;94424.56;5048385;28;20231;-72
2023/04/15 01:02:53;;;;;;;13.13;5.80;;;;;;;9.14;77.45;94427.78;5020507;28;20298;-73
2023/04/15 01:05:18;;;;;;;13.00;5.70;;;;;;;9.18;76.26;94428.16;5016370;28;20720;-72
2023/04/15 01:07:44;;;;;;;12.57;5.50;;;;;;;9.11;77.66;94429.97;5014914;28;20232;-72
2023/04/15 01:10:10;;;;;;;11.83;5.20;;;;;;;9.25;78.50;94434.16;5002915;28;20236;-73
2023/04/15 01:12:36;;;;;;;10.17;4.30;;;;;;;9.29;79.00;94436.16;5007113;28;21017;-72
2023/04/15 01:15:02;;;;;;;9.83;4.60;;;;;;;9.34;79.08;94438.97;5017139;28;20800;-71
2023/04/15 01:17:28;;;;;;;7.63;4.17;;;;;;;9.29;78.91;94449.22;5041529;28;20328;-72
2023/04/15 01:19:55;;;;;;;13.40;3.97;;;;;;;9.34;78.96;94451.22;4999383;28;20233;-72
2023/04/15 01:22:21;;;;;;;7.87;3.53;;;;;;;9.34;79.31;94438.97;4993395;28;20286;-73
2023/04/15 01:24:56;;;;;;;11.50;3.90;;;;;;;9.17;80.34;94426.56;5004143;28;20220;-72
2023/04/15 01:27:22;;;;;;;7.67;3.80;;;;;;;8.94;81.85;94421.75;5044438;28;20229;-73
2023/04/15 01:29:47;;;;;;;9.57;3.70;;;;;;;8.96;80.84;94417.13;5051125;28;20221;-72
2023/04/15 01:32:13;;;;;;;7.77;3.50;;;;;;;9.09;81.25;94421.56;5032566;28;20244;-71
2023/04/15 01:34:38;;;;;;;8.90;3.80;;;;;;;9.14;80.13;94419.94;5027902;28;20221;-72
2023/04/15 01:37:03;;;;;;;9.40;3.80;;;;;;;8.99;80.47;94424.56;5016109;28;20244;-72
2023/04/15 01:39:29;;;;;;;8.23;3.57;;;;;;;8.84;81.51;94425.78;5047289;28;20238;-71
2023/04/15 01:41:56;;;;;;;7.87;4.03;;;;;;;8.93;80.20;94419.34;5015425;28;20336;-72
2023/04/15 01:44:21;;;;;;;7.57;3.53;;;;;;;8.65;80.84;94425.56;5014990;28;20225;-72
2023/04/15 01:46:47;;;;;;;8.57;3.60;;;;;;;8.81;80.77;94427.78;5040301;28;20581;-72
2023/04/15 01:49:12;;;;;;;7.93;3.60;;;;;;;8.80;81.40;94433.19;5012529;28;20860;-72
2023/04/15 01:51:38;;;;;;;7.40;3.80;;;;;;;8.48;83.49;94441.78;5017205;28;20709;-72
2023/04/15 01:54:03;;;;;;;8.87;3.80;;;;;;;8.58;83.11;94445.63;5022221;28;20234;-72
2023/04/15 01:56:29;;;;;;;8.00;3.83;;;;;;;8.59;82.51;94444.63;5012953;28;21255;-72
2023/04/15 01:58:54;;;;;;;8.20;3.77;;;;;;;8.47;82.50;94450.63;5004916;28;20225;-72
2023/04/15 02:01:20;;;;;;;10.03;4.00;;;;;;;8.65;81.67;94449.03;5032970;28;20225;-72
2023/04/15 02:03:46;;;;;;;9.57;3.80;;;;;;;8.56;82.85;94446.81;5018159;28;20226;-72
2023/04/15 02:06:11;;;;;;;8.37;4.20;;;;;;;8.59;82.46;94452.47;5038709;28;20236;-72
2023/04/15 02:08:37;;;;;;;11.43;4.33;;;;;;;8.67;82.45;94447.03;5028982;28;20623;-74
2023/04/15 02:11:02;;;;;;;9.33;3.97;;;;;;;8.64;83.01;94446.66;5001674;28;20288;-71
2023/04/15 02:13:28;;;;;;;10.03;4.03;;;;;;;8.28;83.61;94443.56;5011904;28;20701;-70
2023/04/15 02:15:54;;;;;;;8.17;4.03;;;;;;;8.22;85.16;94444.31;5015656;28;20786;-72
2023/04/15 02:18:20;;;;;;;7.93;3.90;;;;;;;8.17;84.69;94444.09;4986440;28;20225;-72
2023/04/15 02:20:46;;;;;;;9.40;3.90;;;;;;;7.98;86.96;94443.03;5009300;28;20229;-71
2023/04/15 02:23:11;;;;;;;9.93;4.50;;;;;;;8.18;85.72;94437.88;5004034;28;20229;-71
2023/04/15 02:25:40;;;;;;;13.33;5.53;;;;;;;8.09;85.65;94432.88;4999570;28;20309;-72
2023/04/15 02:28:05;;;;;;;13.10;5.33;;;;;;;7.82;86.32;94433.75;5017604;28;20256;-71
2023/04/15 02:30:32;;;;;;;18.27;6.70;;;;;;;7.75;87.75;94437.31;5007349;28;20949;-72
2023/04/15 02:32:57;;;;;;;17.13;7.23;;;;;;;7.50;86.13;94437.00;4985023;28;20257;-72
2023/04/15 02:35:24;;;;;;;16.93;7.13;;;;;;;7.63;86.90;94434.47;4999934;28;20225;-71
2023/04/15 02:37:50;;;;;;;16.57;7.53;;;;;;;7.35;88.82;94437.16;5001466;28;20249;-73
2023/04/15 02:40:16;;;;;;;22.63;7.93;;;;;;;7.70;87.53;94447.53;5010675;28;20237;-72
2023/04/15 02:42:43;;;;;;;17.07;7.00;;;;;;;7.65;85.88;94448.09;5000736;28;20275;-72
2023/04/15 02:45:08;;;;;;;15.07;6.40;;;;;;;7.47;85.91;94435.59;4986375;28;20241;-72
2023/04/15 02:47:34;;;;;;;12.67;6.47;;;;;;;6.97;88.15;94435.09;5003959;28;20260;-72
2023/04/15 02:50:02;;;;;;;12.93;6.43;;;;;;;7.28;88.49;94449.28;5000740;28;20818;-72
2023/04/15 02:52:27;;;;;;;12.53;6.17;;;;;;;7.35;85.77;94451.94;4999408;28;20671;-71
2023/04/15 02:54:56;;;;;;;12.07;6.23;;;;;;;6.95;88.30;94450.09;5016493;28;20234;-73
2023/04/15 02:57:22;;;;;;;10.23;5.83;;;;;;;7.08;88.42;94452.75;5015101;28;20312;-72
2023/04/15 02:59:47;;;;;;;11.23;5.83;;;;;;;7.26;85.99;94458.31;5013580;28;20668;-71
2023/04/15 03:02:13;;;;;;;13.77;6.60;;;;;;;6.75;87.66;94452.50;4996898;28;20255;-73
2023/04/15 03:04:38;;;;;;;11.67;6.10;;;;;;;6.52;87.04;94460.50;5023163;28;20708;-73
2023/04/15 03:07:04;;;;;;;11.43;5.83;;;;;;;6.54;86.58;94461.13;5001145;28;20245;-72
2023/04/15 03:09:29;;;;;;;10.07;5.63;;;;;;;6.49;85.29;94455.69;4999611;28;20225;-73
2023/04/15 03:11:55;;;;;;;10.17;5.60;;;;;;;6.55;84.18;94454.94;5002209;28;20580;-72
2023/04/15 03:14:21;;;;;;;12.30;5.47;;;;;;;6.94;82.75;94462.28;5007445;28;20228;-72
2023/04/15 03:16:46;;;;;;;11.67;5.40;;;;;;;7.03;80.78;94466.34;5014826;28;20252;-71
2023/04/15 03:19:12;;;;;;;11.73;5.60;;;;;;;6.88;81.78;94470.81;5000222;28;20746;-71
2023/04/15 03:21:37;;;;;;;9.70;5.00;;;;;;;6.87;80.21;94473.63;4999939;28;20245;-72
2023/04/15 03:24:03;;;;;;;11.07;5.20;;;;;;;6.93;80.50;94472.84;4999906;28;20229;-72
2023/04/15 03:26:29;;;;;;;11.50;4.90;;;;;;;6.81;80.13;94469.97;5003164;28;20229;-72
2023/04/15 03:28:55;;;;;;;12.60;4.83;;;;;;;6.62;82.92;94478.38;4999937;28;20264;-72
2023/04/15 03:31:20;;;;;;;9.20;4.77;;;;;;;6.87;80.59;94479.63;4982382;28;20229;-71
2023/04/15 03:33:46;;;;;;;8.10;4.80;;;;;;;6.56;81.60;94479.97;5005678;28;20224;-73
2023/04/15 03:36:11;;;;;;;9.80;5.00;;;;;;;6.68;80.92;94488.06;4982830;28;20695;-72
2023/04/15 03:38:37;;;;;;;10.07;4.90;;;;;;;6.90;80.46;94499.25;5012717;28;20226;-72
2023/04/15 03:41:02;;;;;;;8.37;5.03;;;;;;;6.92;79.71;94494.66;5011951;28;20234;-72
2023/04/15 03:43:28;;;;;;;7.80;4.63;;;;;;;6.76;81.49;94498.31;4998023;28;20236;-71
2023/04/15 03:45:53;;;;;;;11.00;4.97;;;;;;;6.78;81.65;94504.16;5001321;28;20241;-72
2023/04/15 03:48:19;;;;;;;10.30;4.70;;;;;;;6.71;81.69;94509.28;5016364;28;20228;-72
2023/04/15 03:50:45;;;;;;;8.13;4.57;;;;;;;6.61;82.29;94511.41;5001452;28;20222;-72
2023/04/15 03:53:10;;;;;;;13.00;5.13;;;;;;;6.60;82.21;94507.19;4989303;28;20321;-72
2023/04/15 03:55:36;;;;;;;9.60;4.80;;;;;;;6.92;81.50;94513.69;4980989;28;20309;-72
2023/04/15 03:58:01;;;;;;;9.77;4.83;;;;;;;6.81;81.30;94516.00;5001796;28;20224;-72
2023/04/15 04:00:27;;;;;;;9.43;4.97;;;;;;;6.50;83.18;94513.66;4989859;28;20230;-72
2023/04/15 04:02:52;;;;;;;9.33;4.90;;;;;;;6.53;83.59;94508.09;4999312;28;20241;-72
2023/04/15 04:05:17;;;;;;;13.83;5.20;;;;;;;6.72;82.32;94504.88;5021473;28;20230;-71
2023/04/15 04:07:43;;;;;;;10.27;4.70;;;;;;;6.54;83.59;94513.09;5014420;28;20237;-71
2023/04/15 04:10:09;;;;;;;12.93;5.00;;;;;;;6.65;83.68;94519.63;4982882;28;20742;-71
2023/04/15 04:12:34;;;;;;;10.57;5.20;;;;;;;6.64;83.33;94518.81;5016436;28;20244;-72
2023/04/15 04:15:00;;;;;;;11.50;5.13;;;;;;;6.63;83.94;94519.00;5004547;28;20300;-72
2023/04/15 04:17:25;;;;;;;9.63;5.10;;;;;;;6.71;83.25;94508.50;5015889;28;20237;-71
2023/04/15 04:19:51;;;;;;;11.97;5.30;;;;;;;6.71;84.21;94522.28;5021170;28;20287;-72
2023/04/15 04:22:16;;;;;;;14.87;5.50;;;;;;;7.08;82.72;94523.00;5029246;28;20225;-72
2023/04/15 04:24:42;;;;;;;11.97;5.50;;;;;;;7.21;82.12;94523.13;5012886;28;20242;-72
2023/04/15 04:27:07;;;;;;;10.20;5.70;;;;;;;7.31;81.92;94520.97;5011667;28;20245;-72
2023/04/15 04:29:33;;;;;;;12.37;5.90;;;;;;;7.34;80.98;94523.22;4999991;28;20238;-72
2023/04/15 04:31:58;;;;;;;13.80;5.87;;;;;;;7.38;81.50;94527.03;5008846;28;20241;-72
2023/04/15 04:34:24;;;;;;;12.77;5.67;;;;;;;7.29;82.01;94528.19;5013518;28;20611;-72
2023/04/15 04:36:49;;;;;;;9.67;5.80;;;;;;;7.29;81.66;94529.00;5030166;28;20241;-71
2023/04/15 04:39:14;;;;;;;12.03;6.10;;;;;;;7.42;81.78;94528.28;5001381;28;20232;-72
2023/04/15 04:41:40;;;;;;;14.60;6.60;;;;;;;7.39;80.90;94531.25;5013182;28;20232;-71
2023/04/15 04:44:06;;;;;;;13.87;6.30;;;;;;;7.44;81.69;94527.09;5014307;28;20222;-72
2023/04/15 04:46:31;;;;;;;13.20;6.10;;;;;;;7.44;82.13;94537.53;4997863;28;20222;-72
2023/04/15 04:48:56;;;;;;;14.40;6.70;;;;;;;7.37;82.18;94541.88;5029585;28;20253;-71
2023/04/15 04:51:22;;;;;;;14.20;6.90;;;;;;;7.43;83.46;94535.91;4990654;28;20291;-72
2023/04/15 04:53:47;;;;;;;11.13;6.53;;;;;;;7.70;82.02;94547.31;4998985;28;20230;-72
2023/04/15 04:56:13;;;;;;;14.13;6.93;;;;;;;7.91;80.71;94543.81;4980774;28;20254;-71
2023/04/15 04:58:38;;;;;;;15.07;7.43;;;;;;;7.80;81.43;94542.56;5016301;28;20221;-71
2023/04/15 05:01:04;;;;;;;15.60;7.27;;;;;;;7.95;81.55;94555.47;4982746;28;21023;-71
2023/04/15 05:03:30;;;;;;;16.43;8.30;;;;;;;8.35;79.01;94552.09;4997107;28;20225;-71
2023/04/15 05:05:55;;;;;;;16.90;8.03;;;;;;;10.30;70.61;94554.97;5006978;28;20238;-70
2023/04/15 05:08:21;;;;;;;17.23;8.03;;;;;;;11.44;63.00;94563.59;5005520;28;20233;-71
2023/04/15 05:10:46;;;;;;;16.10;7.73;;;;;;;12.96;57.92;94574.16;5018771;28;20221;-71
2023/04/15 05:13:12;;;;;;;16.97;7.63;;;;;;;14.01;53.12;94581.28;4995292;28;20300;-71
2023/04/15 05:15:40;;;;;;;16.87;7.10;;;;;;;14.57;50.68;94588.59;5013132;28;20900;-71
2023/04/15 05:18:05;;;;;;;13.57;7.17;;;;;;;14.36;50.83;94581.31;4984467;28;20313;-71
2023/04/15 05:20:31;;;;;;;15.17;7.00;;;;;;;14.82;50.92;94591.75;4995686;28;20268;-72
2023/04/15 05:22:56;;;;;;;12.67;7.10;;;;;;;15.02;50.09;94592.13;5006095;28;20226;-72
2023/04/15 05:25:21;;;;;;;11.13;5.77;;;;;;;15.35;48.67;94586.19;4998707;28;20237;-72
2023/04/15 05:27:47;;;;;;;11.13;6.10;;;;;;;15.30;47.29;94586.88;5022823;28;20221;-72
2023/04/15 05:30:13;;;;;;;13.30;6.33;;;;;;;14.51;49.95;94589.53;5000843;28;20228;-71
2023/04/15 05:32:39;;;;;;;9.53;5.43;;;;;;;13.98;51.39;94581.75;4984955;28;21169;-72
2023/04/15 05:35:05;;;;;;;11.07;5.67;;;;;;;14.04;51.83;94586.88;4998783;28;20236;-72
2023/04/15 05:37:30;;;;;;;13.33;6.80;;;;;;;13.60;53.83;94586.63;4983540;28;20260;-72
2023/04/15 05:39:56;;;;;;;10.17;5.87;;;;;;;12.72;56.62;94584.56;4998551;28;20225;-72
2023/04/15 05:42:21;;;;;;;9.03;4.40;;;;;;;13.17;54.17;94590.28;5029172;28;20230;-71
2023/04/15 05:44:47;;;;;;;12.07;4.70;;;;;;;13.27;54.04;94582.66;5033271;28;20228;-72
2023/04/15 05:47:12;;;;;;;10.27;4.90;;;;;;;11.39;58.74;94582.56;5006596;28;20780;-71
2023/04/15 05:49:38;;;;;;;9.57;4.50;;;;;;;12.03;58.45;94587.56;5009392;28;20275;-72
2023/04/15 05:52:03;;;;;;;12.17;5.40;;;;;;;11.86;57.68;94583.88;5003900;28;20237;-72
2023/04/15 05:54:29;;;;;;;9.73;4.93;;;;;;;11.73;59.70;94588.41;5026508;28;20256;-72
2023/04/15 05:56:56;;;;;;;9.87;4.97;;;;;;;11.90;60.22;94590.28;4989239;28;20633;-72
2023/04/15 05:59:24;;;;;;;6.60;3.97;;;;;;;11.66;58.59;94596.28;5007400;28;20243;-72
2023/04/15 06:01:50;;;;;;;8.77;3.93;;;;;;;11.91;58.04;94596.31;4985864;28;20725;-71
2023/04/15 06:04:16;;;;;;;11.70;3.70;;;;;;;11.59;58.57;94594.72;5006494;28;20250;-72
2023/04/15 06:06:42;;;;;;;8.33;3.80;;;;;;;11.74;59.41;94601.31;5021709;28;20258;-72
2023/04/15 06:09:07;;;;;;;7.73;3.73;;;;;;;11.81;59.65;94603.88;5016708;28;20280;-72
2023/04/15 06:11:33;;;;;;;9.00;4.30;;;;;;;11.70;59.32;94610.59;5015294;28;20230;-72
2023/04/15 06:13:58;;;;;;;8.13;4.20;;;;;;;11.88;59.83;94608.06;5003899;28;20283;-72
2023/04/15 06:16:24;;;;;;;11.13;4.20;;;;;;;11.92;59.26;94598.72;5003014;28;20609;-72
2023/04/15 06:18:49;;;;;;;9.07;4.20;;;;;;;11.83;59.72;94610.50;5004334;28;20226;-73
2023/04/15 06:21:15;;;;;;;11.70;4.50;;;;;;;11.99;60.28;94617.81;5025970;28;20253;-72
2023/04/15 06:23:40;;;;;;;12.30;5.63;;;;;;;11.86;59.54;94611.91;5025192;28;20225;-72
2023/04/15 06:26:06;;;;;;;12.40;5.87;;;;;;;12.00;60.15;94613.38;5008813;28;20222;-72
2023/04/15 06:28:32;;;;;;;12.33;6.60;;;;;;;12.18;60.40;94623.13;5003327;28;20232;-72
2023/04/15 06:30:57;;;;;;;13.07;6.80;;;;;;;12.41;61.29;94616.22;4987876;28;20234;-72
2023/04/15 06:33:23;;;;;;;14.13;7.00;;;;;;;12.14;58.91;94634.03;5024909;28;20235;-72
2023/04/15 06:35:49;;;;;;;12.50;6.77;;;;;;;11.88;59.39;94628.22;5004710;28;20221;-71
2023/04/15 06:38:15;;;;;;;16.13;6.83;;;;;;;12.00;60.76;94629.94;5017398;28;20230;-72
2023/04/15 06:40:41;;;;;;;13.50;6.03;;;;;;;12.12;61.31;94643.16;5000335;28;20226;-71
2023/04/15 06:43:06;;;;;;;11.07;5.90;;;;;;;12.18;59.15;94635.22;4997918;28;20269;-71
2023/04/15 06:45:32;;;;;;;12.80;6.20;;;;;;;12.35;59.10;94640.69;5014558;28;20232;-72
2023/04/15 06:47:57;;;;;;;11.27;5.93;;;;;;;12.63;58.04;94637.59;5004192;28;20269;-72
2023/04/15 06:50:23;;;;;;;13.00;5.57;;;;;;;12.82;56.94;94644.47;5007481;28;20230;-72
2023/04/15 06:52:49;;;;;;;11.63;5.87;;;;;;;12.79;57.14;94648.31;4983187;28;20245;-73
2023/04/15 06:55:15;;;;;;;10.17;5.53;;;;;;;12.69;58.06;94652.47;5013159;28;20237;-72
2023/04/15 06:57:40;;;;;;;11.93;5.50;;;;;;;12.53;57.02;94645.97;5015691;28;20232;-72
2023/04/15 07:00:06;;;;;;;12.20;5.67;;;;;;;12.82;56.61;94641.84;4987083;28;20234;-72
2023/04/15 07:02:32;;;;;;;11.70;5.80;;;;;;;13.08;56.01;94635.47;5003843;28;20783;-72
2023/04/15 07:04:57;;;;;;;11.27;5.47;;;;;;;13.06;55.54;94635.72;4998823;28;20243;-72
2023/04/15 07:07:24;;;;;;;10.23;5.20;;;;;;;13.02;55.35;94646.81;5001133;28;20234;-74
2023/04/15 07:09:50;;;;;;;12.07;4.93;;;;;;;13.26;55.38;94649.38;5000047;28;20240;-73
2023/04/15 07:12:15;;;;;;;12.00;5.07;;;;;;;13.18;54.18;94651.53;5002339;28;20233;-72
2023/04/15 07:14:41;;;;;;;13.97;5.10;;;;;;;13.19;54.81;94643.41;5021659;28;20226;-73
2023/04/15 07:17:07;;;;;;;11.90;5.33;;;;;;;13.56;54.05;94646.75;5024955;28;20234;-73
2023/04/15 07:19:33;;;;;;;9.67;5.03;;;;;;;13.84;53.71;94643.50;4986237;28;20233;-72
2023/04/15 07:21:59;;;;;;;11.07;5.30;;;;;;;14.07;52.81;94641.69;4996688;28;20657;-72
2023/04/15 07:24:25;;;;;;;10.23;4.93;;;;;;;14.21;52.46;94644.13;5009074;28;20218;-72
2023/04/15 07:26:58;;;;;;;10.10;5.33;;;;;;;14.49;50.86;94649.53;4999080;28;20735;-73
2023/04/15 07:29:24;;;;;;;11.37;5.00;;;;;;;14.42;50.84;94647.03;5008564;28;20240;-72
2023/04/15 07:31:50;;;;;;;10.40;4.90;;;;;;;14.47;53.15;94644.47;4999164;28;20614;-72
2023/04/15 07:34:15;;;;;;;10.90;4.70;;;;;;;14.27;52.89;94651.91;5001747;28;20773;-72
2023/04/15 07:36:41;;;;;;;8.63;4.90;;;;;;;14.55;51.49;94652.03;4983772;28;20237;-72
2023/04/15 07:39:11;;;;;;;12.23;5.00;;;;;;;14.37;52.49;94643.47;4989913;28;20234;-73
2023/04/15 07:41:36;;;;;;;9.47;4.90;;;;;;;14.28;52.43;94642.97;5001626;28;20234;-73
2023/04/15 07:44:02;;;;;;;9.87;4.93;;;;;;;14.57;52.54;94641.25;5030968;28;20276;-71
2023/04/15 07:46:28;;;;;;;13.57;5.03;;;;;;;14.54;50.90;94641.75;4999742;28;20237;-73
2023/04/15 07:48:53;;;;;;;10.60;4.87;;;;;;;14.77;50.86;94639.88;5017093;28;20233;-73
2023/04/15 07:51:20;;;;;;;13.60;5.10;;;;;;;15.14;50.99;94652.75;5015860;28;20236;-73
2023/04/15 07:53:47;;;;;;;9.90;4.63;;;;;;;15.30;49.14;94654.66;4983650;28;20233;-72
2023/04/15 07:56:12;;;;;;;8.57;4.53;;;;;;;15.27;50.27;94655.09;4981630;28;20809;-72
2023/04/15 07:58:38;;;;;;;11.83;4.50;;;;;;;15.07;48.95;94662.63;4997766;28;20230;-72
2023/04/15 08:01:04;;;;;;;10.07;4.53;;;;;;;15.06;49.64;94664.47;5031191;28;20299;-72
2023/04/15 08:03:29;;;;;;;10.30;4.80;;;;;;;15.37;48.17;94669.31;4983870;28;20225;-73
2023/04/15 08:05:54;;;;;;;9.97;4.53;;;;;;;15.18;47.92;94665.22;5011167;28;20230;-72
2023/04/15 08:08:21;;;;;;;9.00;4.70;;;;;;;15.07;47.76;94662.63;5007804;28;20226;-73
2023/04/15 08:10:46;;;;;;;11.07;4.70;;;;;;;15.16;48.18;94655.94;4999655;28;20226;-72
2023/04/15 08:13:12;;;;;;;9.17;4.20;;;;;;;15.27;47.52;94657.75;5007130;28;20241;-73
2023/04/15 08:15:37;;;;;;;9.37;4.23;;;;;;;15.77;47.03;94663.97;5017939;28;20226;-73
2023/04/15 08:18:03;;;;;;;8.07;3.87;;;;;;;15.97;46.02;94652.97;5030221;28;20242;-73
2023/04/15 08:20:28;;;;;;;8.50;4.63;;;;;;;16.18;46.05;94661.00;4999680;28;20234;-71
2023/04/15 08:22:54;;;;;;;9.50;4.50;;;;;;;15.98;44.94;94660.66;5014061;28;20246;-73
2023/04/15 08:25:20;;;;;;;7.43;3.10;;;;;;;16.08;43.75;94655.53;5023996;28;20309;-73
2023/04/15 08:27:45;;;;;;;7.77;3.13;;;;;;;16.05;42.64;94661.28;5031470;28;20286;-72
2023/04/15 08:30:11;;;;;;;7.57;2.53;;;;;;;15.45;43.08;94661.03;5025156;28;20658;-74
2023/04/15 08:32:37;;;;;;;8.60;4.00;;;;;;;16.04;45.93;94659.72;5014268;28;20336;-73
2023/04/15 08:35:03;;;;;;;10.77;5.13;;;;;;;16.07;46.43;94653.16;4982670;28;20234;-73
2023/04/15 08:37:28;;;;;;;11.80;5.30;;;;;;;15.57;48.75;94649.63;5030343;28;21156;-74
2023/04/15 08:39:54;;;;;;;13.13;5.53;;;;;;;15.90;47.87;94649.69;4998407;28;20233;-74
2023/04/15 08:42:23;;;;;;;10.40;5.27;;;;;;;16.07;47.34;94642.59;4997827;28;20781;-74
2023/04/15 08:44:48;;;;;;;10.30;4.57;;;;;;;16.28;47.55;94647.16;4991248;28;20758;-74
2023/04/15 08:47:14;;;;;;;8.67;4.73;;;;;;;16.44;48.22;94648.16;4990185;28;20230;-73
2023/04/15 08:49:40;;;;;;;8.90;4.43;;;;;;;16.78;45.82;94650.56;4996181;28;20226;-73
2023/04/15 08:52:06;;;;;;;9.93;4.03;;;;;;;16.73;45.29;94647.03;4999468;28;20230;-72
2023/04/15 08:54:31;;;;;;;10.17;4.00;;;;;;;17.01;45.27;94640.78;5031542;28;20741;-74
2023/04/15 08:56:57;;;;;;;8.27;4.13;;;;;;;16.81;44.10;94636.81;4996385;28;20234;-73
2023/04/15 08:59:23;;;;;;;7.97;3.77;;;;;;;16.55;42.30;94634.88;5000772;28;20226;-72
2023/04/15 09:01:51;;;;;;;7.57;3.73;;;;;;;16.87;43.45;94621.84;4989413;28;20256;-74
2023/04/15 09:04:17;;;;;;;4.93;2.90;;;;;;;16.91;42.19;94622.16;4997630;28;20316;-73
2023/04/15 09:06:43;;;;;;;9.70;3.63;;;;;;;17.11;43.11;94622.38;5000524;28;20371;-73
2023/04/15 09:09:08;;;;;;;7.13;3.40;;;;;;;16.92;42.05;94619.25;5000379;28;20883;-74
2023/04/15 09:11:34;;;;;;;5.70;3.20;;;;;;;16.58;42.35;94623.84;5017714;28;20234;-74
2023/04/15 09:14:00;;;;;;;8.87;3.30;;;;;;;16.76;43.53;94623.56;4998809;28;20279;-72
2023/04/15 09:16:26;;;;;;;7.70;3.30;;;;;;;16.92;41.98;94613.16;4989414;28;20325;-73
2023/04/15 09:18:52;;;;;;;9.03;3.20;;;;;;;16.72;41.71;94603.13;5012857;28;20230;-73
2023/04/15 09:21:18;;;;;;;6.23;3.00;;;;;;;17.00;44.45;94616.19;5025829;28;20337;-73
2023/04/15 09:23:55;;;;;;;6.30;2.90;;;;;;;17.20;43.40;94610.31;5034907;28;20225;-73
2023/04/15 09:26:34;;;;;;;6.63;2.63;;;;;;;17.07;41.13;94608.88;4989041;28;20225;-73
2023/04/15 09:29:06;;;;;;;4.00;2.43;;;;;;;16.90;40.76;94617.91;5019869;28;20237;-74
2023/04/15 09:31:32;;;;;;;5.80;2.97;;;;;;;16.35;41.89;94610.00;5009236;28;20230;-73
2023/04/15 09:33:57;;;;;;;4.83;2.30;;;;;;;16.60;41.29;94618.28;5015683;28;20623;-73
2023/04/15 09:36:24;;;;;;;7.43;2.60;;;;;;;16.86;40.29;94617.59;4987739;28;20226;-73
2023/04/15 09:38:58;;;;;;;5.40;2.40;;;;;;;16.46;41.43;94619.66;5033800;28;20297;-74
2023/04/15 09:41:24;;;;;;;5.97;2.67;;;;;;;16.52;40.58;94622.19;5009533;28;20308;-71
2023/04/15 09:43:50;;;;;;;6.03;2.40;;;;;;;16.66;39.57;94625.25;5034943;28;20237;-73
2023/04/15 09:46:16;;;;;;;7.60;2.70;;;;;;;16.54;40.08;94616.63;5001581;28;20228;-72
2023/04/15 09:48:41;;;;;;;4.70;2.40;;;;;;;16.63;39.77;94617.81;4999065;28;20261;-74
2023/04/15 09:51:06;;;;;;;6.03;2.40;;;;;;;16.89;40.49;94614.47;4998925;28;20238;-74
2023/04/15 09:53:34;;;;;;;4.73;2.03;;;;;;;16.94;39.77;94611.88;4991714;28;20280;-73
2023/04/15 09:56:01;;;;;;;6.13;2.20;;;;;;;16.43;40.30;94620.16;4995502;28;20254;-73
2023/04/15 09:58:28;;;;;;;4.10;2.20;;;;;;;16.16;41.02;94615.53;4997389;28;20227;-72
2023/04/15 10:00:57;;;;;;;5.50;2.20;;;;;;;16.40;39.31;94621.44;5000668;28;20324;-74
2023/04/15 10:03:28;;;;;;;2.63;1.90;;;;;;;17.03;39.56;94620.19;5000674;28;20770;-73
2023/04/15 10:05:58;;;;;;;5.27;2.10;;;;;;;17.46;38.86;94620.13;5023205;28;20311;-73
2023/04/15 10:08:27;;;;;;;4.47;2.00;;;;;;;17.27;37.62;94622.31;4999475;28;20241;-73
2023/04/15 10:10:53;;;;;;;4.23;2.30;;;;;;;17.07;36.72;94618.66;4985071;28;20231;-74
2023/04/15 10:13:22;;;;;;;4.33;2.00;;;;;;;17.37;38.81;94611.84;5013276;28;20214;-73
2023/04/15 10:15:57;;;;;;;4.40;1.90;;;;;;;17.79;37.71;94598.00;4995708;28;20710;-74
2023/04/15 10:18:25;;;;;;;5.97;2.13;;;;;;;17.88;37.51;94591.19;4999220;28;20226;-73
2023/04/15 10:20:50;;;;;;;4.57;1.90;;;;;;;17.75;35.43;94600.34;4997740;28;20787;-74
2023/04/15 10:23:16;;;;;;;4.57;1.90;;;;;;;17.98;35.87;94592.06;4998089;28;20230;-74
2023/04/15 10:25:42;;;;;;;9.37;3.33;;;;;;;18.40;35.34;94588.66;5013730;28;20230;-73
2023/04/15 10:28:07;;;;;;;5.23;2.00;;;;;;;18.46;35.50;94587.66;4997881;28;20231;-73
2023/04/15 10:30:33;;;;;;;4.60;1.90;;;;;;;18.78;35.08;94575.91;4997473;28;20226;-73
2023/04/15 10:33:00;;;;;;;3.60;1.80;;;;;;;18.76;35.89;94577.22;4998681;28;20256;-74
2023/04/15 10:35:27;;;;;;;3.87;1.90;;;;;;;18.40;33.88;94572.75;4988280;28;20231;-74
2023/04/15 10:37:53;;;;;;;5.07;2.40;;;;;;;18.48;34.05;94577.59;5009925;28;20329;-74
2023/04/15 10:40:26;;;;;;;3.43;1.80;;;;;;;17.77;34.24;94573.63;4999796;28;20222;-73
2023/04/15 10:42:55;;;;;;;4.27;2.00;;;;;;;18.15;37.27;94558.28;5015538;28;20234;-73
2023/04/15 10:45:20;;;;;;;4.43;1.73;;;;;;;18.13;34.84;94562.22;5021163;28;20318;-74
2023/04/15 10:47:50;;;;;;;5.23;2.03;;;;;;;18.13;34.65;94572.81;5012667;28;20678;-73
2023/04/15 10:50:20;;;;;;;2.80;1.80;;;;;;;18.14;34.33;94562.00;4982589;28;20313;-73
2023/04/15 10:52:45;;;;;;;3.47;2.03;;;;;;;18.13;34.49;94570.19;4997529;28;20242;-74
2023/04/15 10:55:15;;;;;;;3.33;1.90;;;;;;;18.33;34.60;94570.31;5001947;28;20243;-73
2023/04/15 10:57:41;;;;;;;5.20;2.10;;;;;;;17.85;33.94;94573.16;4999065;28;20300;-74
2023/04/15 11:00:17;;;;;;;4.00;2.00;;;;;;;18.08;35.35;94564.84;5021479;28;20233;-73
2023/04/15 11:02:56;;;;;;;8.17;4.20;;;;;;;18.02;35.78;94576.47;4997459;28;20289;-73
2023/04/15 11:05:42;;;;;;;3.93;2.20;;;;;;;17.95;34.00;94560.81;5011800;28;20245;-73
2023/04/15 11:08:08;;;;;;;2.13;1.50;;;;;;;17.94;36.64;94547.78;5001919;28;20633;-74
2023/04/15 11:10:34;;;;;;;4.37;1.70;;;;;;;17.70;34.98;94557.13;5020977;28;20241;-73
2023/04/15 11:13:04;;;;;;;5.00;1.80;;;;;;;17.43;34.58;94557.91;5013420;28;20234;-73
2023/04/15 11:15:46;;;;;;;3.83;1.90;;;;;;;17.83;34.94;94568.13;5020263;28;20235;-73
2023/04/15 11:18:12;;;;;;;3.87;1.60;;;;;;;18.17;33.09;94563.34;4995431;28;20235;-73
2023/04/15 11:20:39;;;;;;;7.03;3.00;;;;;;;18.39;34.16;94555.28;5012744;28;20261;-73
2023/04/15 11:23:05;;;;;;;5.80;1.80;;;;;;;18.57;32.57;94563.63;5001609;28;20238;-73
2023/04/15 11:25:32;;;;;;;3.40;1.50;;;;;;;18.45;32.22;94551.56;5015986;28;20226;-73
2023/04/15 11:27:58;;;;;;;4.50;1.70;;;;;;;18.74;32.52;94553.63;4995713;28;20264;-73